Flight Track Log - Related Links

Times and Time Zones

All times are in EDT time to prevent confusion due to time zone crossing. See the N960DL flight status page for this flight to view local times or setup timezone preferences in your user account.


Time Position Orientation Groundspeed Altitude Reporting Facility
EDT Latitude Longitude Course Direction KTS MPH feet Rate Location/Type
Sat 08:10:36 PM 42.2375 -83.3344 North 168 193 1,500  Level Cleveland Center
Sat 08:11:12 PM 42.2711 -83.3247 12° North 216 249 2,300 1,625 Climbing Cleveland Center
Sat 08:12:12 PM 42.3361 -83.3050 13° North 277 319 4,100 2,300 Climbing Cleveland Center
Sat 08:13:00 PM 42.5506 -83.3500 North  Level FlightAware Approximate
Sat 08:13:12 PM 42.4075 -83.2942 North 286 329 6,900  Level Cleveland Center
Sat 08:14:00 PM 42.6675 -83.3500 North  Level FlightAware Approximate
Sat 08:14:12 PM 42.4967 -83.3064 354° North 286 329 9,800  Level Cleveland Center
Sat 08:15:00 PM 42.7843 -83.3500 North  Level FlightAware Approximate
Sat 08:15:12 PM 42.5819 -83.3186 354° North 294 338 11,600  Level Cleveland Center
Sat 08:16:12 PM 42.6817 -83.3369 352° North 326 375 13,700 1,700 Climbing Cleveland Center
Sat 08:17:12 PM 42.7917 -83.3503 355° North 365 420 15,000 1,600 Climbing Cleveland Center
Sat 08:18:12 PM 42.9122 -83.3669 354° North 403 464 16,900 2,050 Climbing Cleveland Center
Sat 08:19:12 PM 43.0331 -83.3667 360° North 422 486 19,100 2,000 Climbing Cleveland Center
Sat 08:20:12 PM 43.1508 -83.4147 343° North 432 497 20,900 1,600 Climbing Cleveland Center
Sat 08:21:12 PM 43.2675 -83.4942 334° Northwest 444 511 22,300 1,550 Climbing Cleveland Center
Sat 08:22:12 PM 43.3844 -83.5739 334° Northwest 455 524 24,000 1,719 Climbing Cleveland Center
Sat 08:24:31 PM 43.5533 -83.8675 309° West 465 535 28,000 1,522 Climbing Minneapolis Center
Sat 08:25:33 PM 43.5958 -84.0347 289° West 463 533 29,100 1,220 Climbing Minneapolis Center
Sat 08:26:34 PM 43.6389 -84.2025 290° West 465 535 30,500 1,366 Climbing Minneapolis Center
Sat 08:27:36 PM 43.6875 -84.3997 289° West 458 527 31,900 1,122 Climbing Minneapolis Center
Sat 08:28:37 PM 43.7275 -84.5622 289° West 452 520 32,800 787 Climbing Minneapolis Center
Sat 08:29:38 PM 43.7675 -84.7250 289° West 450 518 33,500 585 Climbing Minneapolis Center
Sat 08:30:40 PM 43.8075 -84.8872 289° West 449 517 34,000 244 Climbing Minneapolis Center
Sat 08:31:41 PM 43.8469 -85.0500 289° West 449 517 34,000  Level Minneapolis Center
Sat 08:32:42 PM 43.8858 -85.2133 288° West 449 517 34,000  Level Minneapolis Center
Sat 08:33:44 PM 43.9253 -85.3772 289° West 450 518 34,000  Level Minneapolis Center
Sat 08:34:45 PM 43.9647 -85.5403 289° West 450 518 34,000  Level Minneapolis Center
Sat 08:35:47 PM 44.0117 -85.7375 288° West 450 518 34,000  Level Minneapolis Center
Sat 08:36:48 PM 44.0500 -85.9031 288° West 452 520 34,000  Level Minneapolis Center
Sat 08:37:49 PM 44.0886 -86.0692 288° West 454 522 34,000  Level Minneapolis Center
Sat 08:38:51 PM 44.1264 -86.2300 288° West 453 521 34,000  Level Minneapolis Center
Sat 08:39:52 PM 44.1639 -86.3978 287° West 452 520 34,000  Level Minneapolis Center
Sat 08:40:54 PM 44.2014 -86.5661 287° West 452 520 34,000  Level Minneapolis Center
Sat 08:41:55 PM 44.2392 -86.7333 288° West 451 519 34,000  Level Minneapolis Center
Sat 08:42:56 PM 44.2828 -86.9344 287° West 450 518 34,000  Level Minneapolis Center
Sat 08:43:58 PM 44.3183 -87.1033 286° West 452 520 34,000  Level Minneapolis Center
Sat 08:44:59 PM 44.3422 -87.2581 282° West 454 522 34,000  Level Minneapolis Center
Sat 08:46:00 PM 44.3728 -87.4603 282° West 456 525 34,000  Level Minneapolis Center
Sat 08:47:02 PM 44.3992 -87.6342 282° West 458 527 34,000  Level Minneapolis Center
Sat 08:48:03 PM 44.4244 -87.8103 281° West 462 532 34,000  Level Minneapolis Center
Sat 08:49:04 PM 44.4497 -87.9842 282° West 460 529 34,000  Level Minneapolis Center
Sat 08:50:06 PM 44.4761 -88.1600 282° West 462 532 34,000  Level Minneapolis Center
Sat 08:51:07 PM 44.4997 -88.3344 281° West 459 528 34,000  Level Minneapolis Center
Sat 08:52:08 PM 44.5214 -88.4803 282° West 458 527 34,000  Level Minneapolis Center
Sat 08:53:10 PM 44.5503 -88.6864 281° West 462 532 34,000  Level Minneapolis Center
Sat 08:54:11 PM 44.5700 -88.8328 281° West 462 532 34,000  Level Minneapolis Center
Sat 08:55:12 PM 44.6014 -89.0692 281° West 462 532 34,000  Level Minneapolis Center
Sat 08:56:14 PM 44.6247 -89.2472 280° West 463 533 34,000  Level Minneapolis Center
Sat 08:57:15 PM 44.6472 -89.4222 280° West 461 531 34,000  Level Minneapolis Center
Sat 08:58:16 PM 44.6683 -89.5975 280° West 457 526 34,000 -49 Level Minneapolis Center
Sat 08:59:17 PM 44.6911 -89.7725 280° West 456 525 33,900 -585 Descending Minneapolis Center
Sat 09:00:19 PM 44.7133 -89.9483 280° West 457 526 32,800 -1,171 Descending Minneapolis Center
Sat 09:01:20 PM 44.7358 -90.1253 280° West 458 527 31,500 -1,377 Descending Minneapolis Center
Sat 09:02:21 PM 44.7619 -90.3333 280° West 462 532 30,000 -738 Descending Minneapolis Center
Sat 09:03:22 PM 44.7833 -90.5117 280° West 462 532 30,000  Level Minneapolis Center
Sat 09:04:24 PM 44.8025 -90.6786 279° West 465 535 30,000 -439 Level Minneapolis Center
Sat 09:05:25 PM 44.8239 -90.8589 280° West 467 537 29,100 -1,164 Descending Minneapolis Center
Sat 09:06:38 PM 44.8511 -91.0361 282° West 466 536 27,400 -1,746 Descending Minneapolis Center
Sat 09:07:39 PM 44.8842 -91.2497 282° West 467 537 25,200 -2,341 Descending Minneapolis Center
Sat 09:08:41 PM 44.9192 -91.4592 283° West 462 532 22,600 -2,683 Descending Minneapolis Center
Sat 09:09:42 PM 44.9442 -91.6250 282° West 446 513 19,700 -2,607 Descending Minneapolis Center
Sat 09:10:43 PM 44.9692 -91.7872 282° West 434 499 17,300 -2,410 Descending Minneapolis Center
Sat 09:11:44 PM 44.9967 -91.9436 284° West 417 480 14,800 -2,410 Descending Minneapolis Center
Sat 09:12:45 PM 45.0206 -92.0939 283° West 396 456 12,400 -1,869 Descending Minneapolis Center
Sat 09:13:46 PM 45.0406 -92.2397 281° West 384 442 11,000 -627 Descending Minneapolis Center
Sat 09:14:59 PM 45.0331 -92.3831 266° West 372 428 11,000 -358 Level Minneapolis Center
Sat 09:16:00 PM 44.9986 -92.5275 251° West 320 368 10,200 -1,082 Descending Minneapolis Center
Sat 09:17:01 PM 44.9483 -92.6153 231° Southwest 291 335 8,800 -1,574 Descending Minneapolis Center
Sat 09:18:02 PM 44.8894 -92.7203 232° Southwest 285 328 7,000 -1,328 Descending Minneapolis Center
Sat 09:19:03 PM 44.8411 -92.8078 232° Southwest 284 327 6,100 -1,279 Descending Minneapolis Center
Sat 09:20:04 PM 44.7944 -92.8936 233° Southwest 278 320 4,400 -1,033 Descending Minneapolis Center
Sat 09:21:05 PM 44.7897 -92.9808 266° West 234 269 4,000 -492 Descending Minneapolis Center
Sat 09:22:06 PM 44.8175 -93.0481 300° West 201 231 3,400 -836 Descending Minneapolis Center
Sat 09:23:07 PM 44.8436 -93.1086 301° West 185 213 2,300 -934 Descending Minneapolis Center
Sat 09:24:08 PM 44.8642 -93.1550 302° West 144 166 1,500 -787 Descending Minneapolis Center

Login

Don't have an account? Register now (free) for customized features, flight alerts, and more!